Time;durP1;ratioP1;P1;durP2;ratioP2;P2;SDS_P1;SDS_P2;PMS_P1;PMS_P2;Temp;Humidity;BMP_temperature;BMP_pressure;BME280_temperature;BME280_humidity;BME280_pressure;Samples;Min_cycle;Max_cycle;Signal;HPM_P1;HPM_P2
2023/05/14 00:01:11;;;;;;;10.63;9.73;;;13.10;99.90;;;;;;4931753;29;21643;-67
2023/05/14 00:03:39;;;;;;;10.23;9.23;;;13.20;99.90;;;;;;4933060;29;20221;-68
2023/05/14 00:06:06;;;;;;;10.38;9.48;;;13.20;99.90;;;;;;4950205;28;20205;-67
2023/05/14 00:08:32;;;;;;;9.77;8.88;;;13.20;99.90;;;;;;4950350;28;20181;-67
2023/05/14 00:10:58;;;;;;;8.93;8.23;;;13.30;99.90;;;;;;4949984;28;20255;-67
2023/05/14 00:13:24;;;;;;;8.73;7.93;;;13.20;99.90;;;;;;4948607;28;20541;-67
2023/05/14 00:15:50;;;;;;;10.38;9.48;;;13.40;99.90;;;;;;4948299;28;20196;-67
2023/05/14 00:18:16;;;;;;;10.67;9.67;;;13.20;99.90;;;;;;4932385;29;20224;-67
2023/05/14 00:20:41;;;;;;;8.90;8.00;;;13.40;99.90;;;;;;4945270;28;20726;-67
2023/05/14 00:23:07;;;;;;;9.77;8.87;;;13.00;99.90;;;;;;4944321;28;20556;-67
2023/05/14 00:25:32;;;;;;;11.30;10.10;;;13.00;99.90;;;;;;4949310;28;20294;-68
2023/05/14 00:27:58;;;;;;;9.57;8.73;;;12.90;99.90;;;;;;4950209;28;20177;-69
2023/05/14 00:30:23;;;;;;;10.10;9.00;;;13.10;99.90;;;;;;4948078;28;20193;-66
2023/05/14 00:32:49;;;;;;;10.07;9.17;;;13.10;99.90;;;;;;4931778;28;20181;-66
2023/05/14 00:35:15;;;;;;;9.70;8.80;;;13.10;99.90;;;;;;4949666;28;20196;-65
2023/05/14 00:37:40;;;;;;;10.47;9.57;;;12.90;99.90;;;;;;4946716;28;20185;-67
2023/05/14 00:40:07;;;;;;;9.63;8.80;;;13.40;99.90;;;;;;4949118;28;20205;-67
2023/05/14 00:42:33;;;;;;;8.90;8.00;;;13.20;99.90;;;;;;4952718;28;20189;-67
2023/05/14 00:44:58;;;;;;;10.63;8.90;;;13.30;99.90;;;;;;4949163;28;20187;-68
2023/05/14 00:47:25;;;;;;;9.10;8.27;;;13.30;99.90;;;;;;4949275;28;20503;-68
2023/05/14 00:49:50;;;;;;;10.07;9.07;;;13.30;99.90;;;;;;4946770;28;20193;-66
2023/05/14 00:52:17;;;;;;;9.13;8.23;;;13.20;99.90;;;;;;4932098;29;20674;-68
2023/05/14 00:54:45;;;;;;;9.85;8.95;;;13.20;99.90;;;;;;4949072;28;20483;-67
2023/05/14 00:57:11;;;;;;;9.82;8.93;;;13.40;99.90;;;;;;4949310;28;20181;-68
2023/05/14 00:59:39;;;;;;;9.53;8.73;;;13.40;99.90;;;;;;4947932;28;20411;-68
2023/05/14 01:02:05;;;;;;;10.73;9.77;;;13.60;99.90;;;;;;4949223;28;20654;-66
2023/05/14 01:04:31;;;;;;;10.40;9.50;;;13.00;99.90;;;;;;4947522;28;20193;-66
2023/05/14 01:07:05;;;;;;;11.20;9.40;;;13.20;99.90;;;;;;4930483;29;20719;-67
2023/05/14 01:09:49;;;;;;;12.02;10.82;;;12.60;99.90;;;;;;4929427;29;20184;-67
2023/05/14 01:12:37;;;;;;;12.15;10.95;;;13.40;99.90;;;;;;4950106;28;20204;-67
2023/05/14 01:15:11;;;;;;;10.98;9.98;;;13.10;99.90;;;;;;4948950;28;20184;-67
2023/05/14 01:17:41;;;;;;;11.45;10.45;;;13.10;99.90;;;;;;4945524;28;20239;-67
2023/05/14 01:20:08;;;;;;;12.20;11.02;;;13.00;99.90;;;;;;4944621;28;20217;-67
2023/05/14 01:22:33;;;;;;;12.02;10.95;;;13.00;99.90;;;;;;4931650;28;20300;-67
2023/05/14 01:24:59;;;;;;;13.43;12.13;;;12.90;99.90;;;;;;4948683;28;20667;-67
2023/05/14 01:27:48;;;;;;;11.70;10.60;;;12.70;99.90;;;;;;4948984;28;20213;-67
2023/05/14 01:30:29;;;;;;;12.43;11.23;;;12.40;99.90;;;;;;4946654;28;20215;-66
2023/05/14 01:32:59;;;;;;;12.43;11.30;;;12.40;99.90;;;;;;4931448;28;20247;-67
2023/05/14 01:35:27;;;;;;;13.07;11.95;;;12.20;99.90;;;;;;4947007;28;20185;-66
2023/05/14 01:38:02;;;;;;;11.57;10.48;;;12.20;99.90;;;;;;4946318;28;20189;-66
2023/05/14 01:40:28;;;;;;;11.52;10.52;;;12.20;99.90;;;;;;4928872;29;20221;-66
2023/05/14 01:42:55;;;;;;;11.27;10.20;;;12.40;99.90;;;;;;4950343;28;20287;-67
2023/05/14 01:45:22;;;;;;;12.68;11.48;;;12.30;99.90;;;;;;4946210;29;20184;-66
2023/05/14 01:47:48;;;;;;;12.50;11.30;;;12.40;99.90;;;;;;4948553;28;20236;-67
2023/05/14 01:50:13;;;;;;;11.57;10.40;;;12.40;99.90;;;;;;4949290;28;20196;-66
2023/05/14 01:52:39;;;;;;;11.87;10.77;;;12.10;99.90;;;;;;4946406;28;20444;-66
2023/05/14 01:55:05;;;;;;;17.63;14.40;;;12.20;99.90;;;;;;4949008;28;20185;-66
2023/05/14 01:57:31;;;;;;;13.75;12.45;;;12.30;99.90;;;;;;4946126;28;20394;-67
2023/05/14 01:59:57;;;;;;;11.47;10.47;;;12.30;99.90;;;;;;4944838;28;20740;-67
2023/05/14 02:02:22;;;;;;;14.63;13.00;;;12.30;99.90;;;;;;4948509;29;20953;-66
2023/05/14 02:04:48;;;;;;;12.47;11.27;;;12.20;99.90;;;;;;4946674;28;20230;-67
2023/05/14 02:07:14;;;;;;;11.10;10.10;;;12.10;99.90;;;;;;4947469;28;20303;-67
2023/05/14 02:09:40;;;;;;;13.43;12.10;;;12.30;99.90;;;;;;4932193;29;20448;-67
2023/05/14 02:12:10;;;;;;;11.67;10.50;;;12.20;99.90;;;;;;4949009;28;20200;-67
2023/05/14 02:14:36;;;;;;;12.10;10.98;;;12.40;99.90;;;;;;4948365;28;20188;-67
2023/05/14 02:17:02;;;;;;;14.60;10.67;;;12.10;99.90;;;;;;4948811;28;20486;-67
2023/05/14 02:19:28;;;;;;;14.50;12.27;;;12.40;99.90;;;;;;4948091;28;20443;-66
2023/05/14 02:21:54;;;;;;;11.80;10.60;;;12.20;99.90;;;;;;4944715;28;20236;-67
2023/05/14 02:24:19;;;;;;;12.77;11.33;;;12.10;99.90;;;;;;4991261;23;20266;-68
2023/05/14 02:26:45;;;;;;;12.67;11.40;;;12.30;99.90;;;;;;4964396;28;20211;-68
2023/05/14 02:29:11;;;;;;;13.07;11.80;;;12.00;99.90;;;;;;4949747;28;20655;-67
2023/05/14 02:31:36;;;;;;;12.93;11.60;;;12.20;99.90;;;;;;4958811;28;20211;-68
2023/05/14 02:34:03;;;;;;;12.13;11.03;;;12.10;99.90;;;;;;4959294;28;20183;-67
2023/05/14 02:36:28;;;;;;;12.20;11.10;;;12.00;99.90;;;;;;4955735;28;20279;-68
2023/05/14 02:38:54;;;;;;;12.23;10.83;;;12.00;99.90;;;;;;4956676;28;20291;-66
2023/05/14 02:41:20;;;;;;;11.37;10.27;;;12.10;99.90;;;;;;4956393;28;20565;-66
2023/05/14 02:43:46;;;;;;;12.52;11.32;;;12.20;99.90;;;;;;4958005;28;20212;-67
2023/05/14 02:46:12;;;;;;;12.68;11.48;;;12.30;99.90;;;;;;4954746;28;20258;-67
2023/05/14 02:48:38;;;;;;;13.60;12.27;;;12.40;99.90;;;;;;4956421;28;20227;-67
2023/05/14 02:51:03;;;;;;;12.20;11.10;;;12.30;99.90;;;;;;4958823;28;20212;-69
2023/05/14 02:53:29;;;;;;;12.40;11.30;;;12.10;99.90;;;;;;4962233;28;20188;-67
2023/05/14 02:55:55;;;;;;;12.17;11.13;;;12.40;99.90;;;;;;4961727;28;20270;-68
2023/05/14 02:58:20;;;;;;;12.60;11.30;;;12.60;99.90;;;;;;4961992;28;20203;-68
2023/05/14 03:00:46;;;;;;;12.40;11.20;;;12.30;99.90;;;;;;4940210;28;20681;-70
2023/05/14 03:03:11;;;;;;;11.10;9.93;;;12.40;99.90;;;;;;4942392;28;20449;-67
2023/05/14 03:05:37;;;;;;;10.50;9.50;;;12.50;99.90;;;;;;4963364;28;20251;-68
2023/05/14 03:08:03;;;;;;;9.87;9.00;;;12.50;99.90;;;;;;4956486;28;20183;-68
2023/05/14 03:10:28;;;;;;;12.67;9.20;;;12.50;99.90;;;;;;4957827;28;20291;-67
2023/05/14 03:12:54;;;;;;;9.63;8.63;;;12.50;99.90;;;;;;4961264;28;20192;-67
2023/05/14 03:15:19;;;;;;;9.60;8.80;;;12.50;99.90;;;;;;4939879;28;20621;-68
2023/05/14 03:17:45;;;;;;;9.83;8.93;;;12.70;99.90;;;;;;4959359;28;20197;-68
2023/05/14 03:20:11;;;;;;;10.07;9.17;;;12.90;99.90;;;;;;4940483;28;20489;-67
2023/05/14 03:22:37;;;;;;;10.23;9.38;;;12.70;99.90;;;;;;4958680;28;20197;-68
2023/05/14 03:25:03;;;;;;;10.53;9.53;;;12.60;99.90;;;;;;4943760;28;20274;-67
2023/05/14 03:27:28;;;;;;;11.03;10.03;;;12.90;99.90;;;;;;4941329;28;20216;-67
2023/05/14 03:29:54;;;;;;;10.20;9.30;;;12.70;99.90;;;;;;4961961;28;20449;-69
2023/05/14 03:32:20;;;;;;;10.00;9.10;;;12.60;99.90;;;;;;4963177;28;20271;-67
2023/05/14 03:34:45;;;;;;;10.23;9.37;;;13.00;99.90;;;;;;4964225;28;20203;-68
2023/05/14 03:37:11;;;;;;;10.07;9.07;;;12.70;99.90;;;;;;4957058;28;20510;-68
2023/05/14 03:39:37;;;;;;;9.80;8.90;;;12.40;99.90;;;;;;4960251;28;20224;-68
2023/05/14 03:42:03;;;;;;;10.30;9.30;;;12.30;99.90;;;;;;4957572;28;20519;-67
2023/05/14 03:44:28;;;;;;;10.10;9.20;;;12.70;99.90;;;;;;4959546;28;20355;-68
2023/05/14 03:46:54;;;;;;;10.27;9.30;;;13.00;99.90;;;;;;4958270;28;20225;-68
2023/05/14 03:49:20;;;;;;;9.55;8.65;;;12.40;99.90;;;;;;4958611;28;20204;-67
2023/05/14 03:51:45;;;;;;;11.30;10.30;;;12.60;99.90;;;;;;4957450;28;20243;-70
2023/05/14 03:54:11;;;;;;;10.53;9.53;;;12.70;99.90;;;;;;4955939;28;20475;-67
2023/05/14 03:56:37;;;;;;;11.43;10.33;;;12.60;99.90;;;;;;4942228;28;21598;-67
2023/05/14 03:59:02;;;;;;;10.60;9.60;;;13.00;99.90;;;;;;4961464;28;20299;-68
2023/05/14 04:01:28;;;;;;;10.33;9.43;;;12.70;99.90;;;;;;4958714;28;20699;-67
2023/05/14 04:03:53;;;;;;;11.50;10.40;;;12.60;99.90;;;;;;4965874;28;20267;-67
2023/05/14 04:06:19;;;;;;;10.13;9.23;;;12.60;99.90;;;;;;4944358;28;20208;-68
2023/05/14 04:08:45;;;;;;;12.10;10.20;;;12.80;99.90;;;;;;4964106;28;20494;-68
2023/05/14 04:11:10;;;;;;;11.07;9.97;;;12.50;99.90;;;;;;4959265;28;20294;-67
2023/05/14 04:13:36;;;;;;;11.10;10.03;;;12.60;99.90;;;;;;4946702;28;20239;-68
2023/05/14 04:16:01;;;;;;;11.10;10.00;;;12.50;99.90;;;;;;4964026;28;20271;-68
2023/05/14 04:18:27;;;;;;;11.20;10.10;;;12.60;99.90;;;;;;4963245;28;20197;-67
2023/05/14 04:20:53;;;;;;;11.50;10.30;;;12.50;99.90;;;;;;4941985;28;20301;-69
2023/05/14 04:23:18;;;;;;;10.20;9.20;;;12.80;99.90;;;;;;4959606;28;20203;-67
2023/05/14 04:25:44;;;;;;;10.17;9.17;;;12.80;99.90;;;;;;4959850;28;20237;-68
2023/05/14 04:28:09;;;;;;;9.33;8.50;;;12.60;99.90;;;;;;4958303;28;20188;-68
2023/05/14 04:30:35;;;;;;;10.53;9.50;;;12.60;99.90;;;;;;4959227;28;20205;-69
2023/05/14 04:33:01;;;;;;;10.70;9.60;;;12.70;99.90;;;;;;4955479;28;20181;-69
2023/05/14 04:35:27;;;;;;;10.73;9.68;;;12.70;99.90;;;;;;4961405;28;20189;-68
2023/05/14 04:37:52;;;;;;;10.70;9.70;;;12.70;99.90;;;;;;4939491;28;20841;-67
2023/05/14 04:40:18;;;;;;;10.33;9.37;;;12.80;99.90;;;;;;4952880;28;20300;-68
2023/05/14 04:42:43;;;;;;;9.23;8.43;;;12.70;99.90;;;;;;4943539;28;20664;-68
2023/05/14 04:45:10;;;;;;;9.03;8.13;;;13.10;99.90;;;;;;4958788;28;20192;-66
2023/05/14 04:47:36;;;;;;;9.30;8.40;;;13.00;99.90;;;;;;4954602;28;21982;-66
2023/05/14 04:50:01;;;;;;;10.03;9.10;;;12.90;99.90;;;;;;4955847;28;20188;-66
2023/05/14 04:52:27;;;;;;;10.83;9.83;;;12.90;99.90;;;;;;4957334;28;20439;-66
2023/05/14 04:54:53;;;;;;;9.60;8.70;;;13.20;99.90;;;;;;4937462;28;20606;-66
2023/05/14 04:57:18;;;;;;;9.77;8.97;;;13.00;99.90;;;;;;4954295;28;20204;-66
2023/05/14 04:59:44;;;;;;;9.93;9.00;;;;;;;;;;4955976;28;20286;-66
2023/05/14 05:02:10;;;;;;;10.40;9.50;;;13.30;99.90;;;;;;4952374;28;20188;-66
2023/05/14 05:04:35;;;;;;;9.67;8.87;;;12.60;99.90;;;;;;4939362;28;20192;-66
2023/05/14 05:07:01;;;;;;;9.20;8.30;;;13.00;99.90;;;;;;4934969;28;20212;-66
2023/05/14 05:09:27;;;;;;;9.93;9.03;;;13.00;99.90;;;;;;4959907;28;20193;-66
2023/05/14 05:11:52;;;;;;;9.13;8.23;;;13.10;99.90;;;;;;4953956;28;20303;-66
2023/05/14 05:14:18;;;;;;;10.17;9.27;;;12.90;99.90;;;;;;4937914;28;20185;-66
2023/05/14 05:16:43;;;;;;;10.43;9.50;;;13.00;99.90;;;;;;4954683;28;20189;-66
2023/05/14 05:19:09;;;;;;;10.40;9.47;;;12.90;99.90;;;;;;4954499;28;20263;-66
2023/05/14 05:21:35;;;;;;;10.17;9.27;;;13.10;99.90;;;;;;4953663;28;20293;-66
2023/05/14 05:24:01;;;;;;;10.07;9.17;;;13.10;99.90;;;;;;4940324;28;20241;-66
2023/05/14 05:26:26;;;;;;;9.60;8.63;;;13.10;99.90;;;;;;4955045;28;20226;-66
2023/05/14 05:28:52;;;;;;;9.37;8.57;;;12.90;99.90;;;;;;4950045;28;20758;-66
2023/05/14 05:31:18;;;;;;;9.70;8.80;;;13.10;99.90;;;;;;4954464;28;20902;-66
2023/05/14 05:33:44;;;;;;;9.57;8.67;;;13.10;99.90;;;;;;4955856;28;20556;-66
2023/05/14 05:36:09;;;;;;;9.77;8.87;;;13.10;99.90;;;;;;4953362;28;20243;-65
2023/05/14 05:38:35;;;;;;;8.60;7.90;;;13.30;99.90;;;;;;4955993;28;20451;-66
2023/05/14 05:41:00;;;;;;;10.00;9.10;;;13.30;99.90;;;;;;4945728;28;20208;-66
2023/05/14 05:43:27;;;;;;;9.33;8.43;;;13.20;99.90;;;;;;4953939;28;20208;-66
2023/05/14 05:45:53;;;;;;;10.10;9.10;;;13.10;99.90;;;;;;4938197;28;20216;-65
2023/05/14 05:48:19;;;;;;;9.60;8.70;;;13.00;99.90;;;;;;4952793;28;20578;-66
2023/05/14 05:50:47;;;;;;;9.97;9.00;;;13.50;99.90;;;;;;4952955;28;21000;-66
2023/05/14 05:53:15;;;;;;;10.43;9.48;;;13.40;99.90;;;;;;4952694;28;20180;-66
2023/05/14 05:55:41;;;;;;;10.40;9.40;;;13.30;99.90;;;;;;4955239;28;20663;-66
2023/05/14 05:58:07;;;;;;;9.53;8.53;;;13.40;99.90;;;;;;4954200;28;20276;-65
2023/05/14 06:00:33;;;;;;;9.60;8.70;;;13.20;99.90;;;;;;4954306;28;20467;-66
2023/05/14 06:02:58;;;;;;;10.60;8.70;;;13.40;99.90;;;;;;4955980;28;20188;-66
2023/05/14 06:05:24;;;;;;;8.77;7.90;;;13.70;99.90;;;;;;4940485;28;20199;-66
2023/05/14 06:07:50;;;;;;;9.80;8.80;;;13.30;99.90;;;;;;4957703;28;20208;-66
2023/05/14 06:10:16;;;;;;;8.77;7.97;;;13.90;99.90;;;;;;4961274;28;20212;-66
2023/05/14 06:12:41;;;;;;;10.07;9.00;;;13.80;99.90;;;;;;4957097;28;20230;-66
2023/05/14 06:15:07;;;;;;;9.07;8.27;;;13.70;99.90;;;;;;4955227;28;20267;-66
2023/05/14 06:17:33;;;;;;;9.27;8.38;;;13.60;99.90;;;;;;4955889;28;20188;-66
2023/05/14 06:19:58;;;;;;;9.40;8.50;;;13.50;99.90;;;;;;4952721;28;20207;-66
2023/05/14 06:22:24;;;;;;;9.60;8.70;;;13.70;99.90;;;;;;4955080;28;20309;-66
2023/05/14 06:24:50;;;;;;;9.30;8.50;;;13.60;99.90;;;;;;4952300;28;20896;-68
2023/05/14 06:27:15;;;;;;;9.13;8.33;;;13.60;99.90;;;;;;4957514;28;20223;-69
2023/05/14 06:29:41;;;;;;;9.50;8.60;;;13.80;99.90;;;;;;4957082;28;20191;-74
2023/05/14 06:32:07;;;;;;;8.73;7.93;;;14.00;99.90;;;;;;4952784;28;20208;-70
2023/05/14 06:34:33;;;;;;;10.02;9.02;;;13.60;99.90;;;;;;4954026;28;20327;-68
2023/05/14 06:37:01;;;;;;;10.60;9.03;;;13.60;99.90;;;;;;4954846;28;20870;-74
2023/05/14 06:39:27;;;;;;;9.60;8.70;;;13.70;99.90;;;;;;4955970;28;20246;-72
2023/05/14 06:41:52;;;;;;;9.50;8.60;;;14.10;99.90;;;;;;4946984;28;20298;-64
2023/05/14 06:44:18;;;;;;;9.57;8.77;;;13.90;99.90;;;;;;4937301;28;20192;-65
2023/05/14 06:46:44;;;;;;;10.50;9.40;;;13.90;99.90;;;;;;4936944;28;20208;-64
2023/05/14 06:49:09;;;;;;;9.93;9.03;;;13.90;99.90;;;;;;4950609;28;20463;-67
2023/05/14 06:51:35;;;;;;;8.77;7.97;;;13.90;99.90;;;;;;4935124;28;20283;-68
2023/05/14 06:54:00;;;;;;;9.70;8.80;;;13.90;99.90;;;;;;4953772;28;20200;-66
2023/05/14 06:56:26;;;;;;;9.30;8.40;;;14.00;99.90;;;;;;4942030;28;20196;-66
2023/05/14 06:58:52;;;;;;;9.23;8.43;;;13.90;99.90;;;;;;4953208;28;20185;-67
2023/05/14 07:01:17;;;;;;;9.80;8.90;;;13.60;99.90;;;;;;4951459;28;20709;-68
2023/05/14 07:03:43;;;;;;;10.47;9.50;;;14.10;99.90;;;;;;4936961;28;20180;-67
2023/05/14 07:06:08;;;;;;;10.20;8.97;;;14.40;99.90;;;;;;4952617;28;20299;-67
2023/05/14 07:08:34;;;;;;;10.00;9.10;;;14.70;99.90;;;;;;4937553;28;20655;-67
2023/05/14 07:11:00;;;;;;;9.27;8.40;;;14.30;99.90;;;;;;4952476;28;20201;-66
2023/05/14 07:13:27;;;;;;;10.40;9.40;;;14.40;99.90;;;;;;4954866;28;20662;-66
2023/05/14 07:15:54;;;;;;;9.00;8.10;;;14.30;99.90;;;;;;4933817;28;20978;-64
2023/05/14 07:18:20;;;;;;;10.13;9.05;;;14.40;99.90;;;;;;4955790;28;20201;-66
2023/05/14 07:20:46;;;;;;;9.32;8.55;;;14.40;99.90;;;;;;4954456;28;20212;-66
2023/05/14 07:23:11;;;;;;;8.87;8.07;;;14.80;99.90;;;;;;4954138;28;20654;-67
2023/05/14 07:25:37;;;;;;;9.00;8.20;;;14.90;99.90;;;;;;4952888;28;20211;-64
2023/05/14 07:28:03;;;;;;;9.00;8.20;;;15.00;99.90;;;;;;4934200;28;20188;-66
2023/05/14 07:30:28;;;;;;;8.87;8.07;;;15.00;99.90;;;;;;4954176;28;20320;-65
2023/05/14 07:32:54;;;;;;;9.07;8.37;;;15.00;99.90;;;;;;4954165;28;20189;-66
2023/05/14 07:35:20;;;;;;;9.87;8.97;;;15.00;99.90;;;;;;4939000;28;20633;-66
2023/05/14 07:37:45;;;;;;;10.40;9.50;;;15.30;99.90;;;;;;4963344;28;20267;-66
2023/05/14 07:40:11;;;;;;;10.37;9.37;;;15.20;99.90;;;;;;4955494;28;20977;-66
2023/05/14 07:42:37;;;;;;;9.07;8.27;;;15.40;99.90;;;;;;4957081;28;20562;-66
2023/05/14 07:45:06;;;;;;;8.77;8.07;;;15.50;99.90;;;;;;4959157;28;20201;-66
2023/05/14 07:47:32;;;;;;;8.68;7.97;;;16.30;99.90;;;;;;4962110;28;20367;-66
2023/05/14 07:49:58;;;;;;;10.03;9.13;;;15.90;99.90;;;;;;4957386;28;20654;-68
2023/05/14 07:52:24;;;;;;;9.25;8.35;;;15.90;99.90;;;;;;4954951;28;20189;-66
2023/05/14 07:54:50;;;;;;;9.70;8.90;;;16.20;99.90;;;;;;4954783;28;20722;-66
2023/05/14 07:57:16;;;;;;;9.40;8.50;;;16.60;99.90;;;;;;4956447;28;20516;-66
2023/05/14 07:59:42;;;;;;;12.75;8.70;;;16.80;99.90;;;;;;4938956;28;20193;-66
2023/05/14 08:02:11;;;;;;;8.90;8.00;;;17.10;99.90;;;;;;4954325;28;20263;-66
2023/05/14 08:04:37;;;;;;;9.80;8.80;;;17.20;99.90;;;;;;4960855;28;21009;-66
2023/05/14 08:07:03;;;;;;;10.23;8.65;;;17.00;99.90;;;;;;4944065;28;20303;-66
2023/05/14 08:09:29;;;;;;;8.97;8.23;;;17.00;99.90;;;;;;4956684;28;20280;-66
2023/05/14 08:11:54;;;;;;;9.30;8.50;;;17.60;99.90;;;;;;4959421;28;20456;-66
2023/05/14 08:14:20;;;;;;;9.60;8.60;;;18.30;99.90;;;;;;4957970;28;20217;-66
2023/05/14 08:16:46;;;;;;;8.77;7.97;;;19.00;99.90;;;;;;4956563;28;20231;-66
2023/05/14 08:19:12;;;;;;;9.73;8.82;;;19.40;99.20;;;;;;4958108;28;20199;-66
2023/05/14 08:21:38;;;;;;;9.90;9.00;;;20.60;97.60;;;;;;4956405;28;20220;-66
2023/05/14 08:24:04;;;;;;;8.20;7.50;;;23.10;94.10;;;;;;4959833;28;20907;-66
2023/05/14 08:26:29;;;;;;;7.03;6.50;;;23.40;90.70;;;;;;4960516;28;20600;-66
2023/05/14 08:28:55;;;;;;;7.97;7.37;;;22.80;90.40;;;;;;4957986;28;20444;-66
2023/05/14 08:31:20;;;;;;;9.43;8.67;;;21.70;91.20;;;;;;4955851;28;20209;-67
2023/05/14 08:33:46;;;;;;;9.23;8.43;;;21.40;92.40;;;;;;4958524;28;20211;-67
2023/05/14 08:36:11;;;;;;;8.20;7.50;;;21.30;92.50;;;;;;4943838;28;20189;-68
2023/05/14 08:38:37;;;;;;;9.23;8.07;;;21.40;92.70;;;;;;4958809;28;20197;-67
2023/05/14 08:41:04;;;;;;;8.10;7.50;;;21.40;92.70;;;;;;4960459;28;20205;-67
2023/05/14 08:43:51;;;;;;;8.47;7.77;;;22.50;92.30;;;;;;4959720;28;20499;-67
2023/05/14 08:46:22;;;;;;;8.87;8.17;;;22.60;91.20;;;;;;4958840;28;20464;-67
2023/05/14 08:48:54;;;;;;;8.20;7.50;;;22.70;91.00;;;;;;4958787;28;20552;-67
2023/05/14 08:51:20;;;;;;;11.77;10.60;;;22.30;90.60;;;;;;4942509;28;20468;-67
2023/05/14 08:53:46;;;;;;;8.70;8.00;;;22.80;90.80;;;;;;4957380;28;20432;-67
2023/05/14 08:56:13;;;;;;;9.97;9.00;;;22.40;89.00;;;;;;4962579;28;20284;-67
2023/05/14 08:58:38;;;;;;;10.00;9.10;;;22.20;89.60;;;;;;4963066;28;20502;-67
2023/05/14 09:01:04;;;;;;;8.80;8.00;;;22.30;90.10;;;;;;4955547;28;20480;-67
2023/05/14 09:03:31;;;;;;;9.77;8.97;;;22.70;90.00;;;;;;4944225;28;20222;-67
2023/05/14 09:05:57;;;;;;;9.30;8.50;;;22.60;89.10;;;;;;4951630;28;20226;-67
2023/05/14 09:08:23;;;;;;;8.90;8.03;;;22.50;90.10;;;;;;4960336;28;20934;-66
2023/05/14 09:10:49;;;;;;;9.87;9.00;;;22.70;89.20;;;;;;4941235;28;20464;-67
2023/05/14 09:13:15;;;;;;;10.10;9.20;;;22.50;88.60;;;;;;4964329;28;20177;-67
2023/05/14 09:15:40;;;;;;;10.33;9.33;;;22.30;89.60;;;;;;4957754;28;20188;-67
2023/05/14 09:18:06;;;;;;;8.50;7.80;;;22.40;90.00;;;;;;4958447;28;20195;-67
2023/05/14 09:20:32;;;;;;;9.33;8.53;;;21.60;90.70;;;;;;4955075;28;20235;-67
2023/05/14 09:23:01;;;;;;;9.90;9.10;;;21.50;90.40;;;;;;4960826;28;20191;-66
2023/05/14 09:25:29;;;;;;;9.93;9.00;;;21.80;90.90;;;;;;4957589;28;20196;-66
2023/05/14 09:27:55;;;;;;;10.30;9.27;;;22.20;89.70;;;;;;4956809;28;21223;-66
2023/05/14 09:30:21;;;;;;;9.43;8.53;;;23.10;88.20;;;;;;4934009;28;20468;-66
2023/05/14 09:32:48;;;;;;;9.40;8.50;;;23.70;84.60;;;;;;4953594;28;20461;-65
2023/05/14 09:35:17;;;;;;;9.50;8.70;;;24.80;81.20;;;;;;4952187;28;20243;-66
2023/05/14 09:37:47;;;;;;;9.13;8.43;;;25.50;79.50;;;;;;4952938;28;20459;-67
2023/05/14 09:40:13;;;;;;;28.03;25.53;;;26.50;75.80;;;;;;4957169;28;20471;-67
2023/05/14 09:42:39;;;;;;;8.83;8.13;;;26.10;74.80;;;;;;4958686;28;20475;-61
2023/05/14 09:45:07;;;;;;;8.87;8.07;;;25.70;74.50;;;;;;4956109;28;20446;-62
2023/05/14 09:47:32;;;;;;;8.77;8.07;;;24.70;76.70;;;;;;4938214;28;20848;-60
2023/05/14 09:49:58;;;;;;;8.63;7.93;;;23.10;80.60;;;;;;4955154;28;20445;-64
2023/05/14 09:52:25;;;;;;;8.90;8.10;;;22.70;82.60;;;;;;4956257;28;20259;-66
2023/05/14 09:54:54;;;;;;;8.10;7.40;;;22.40;83.90;;;;;;4956968;28;20440;-66
2023/05/14 09:57:20;;;;;;;8.10;7.40;;;21.70;84.60;;;;;;4959253;28;20868;-66
2023/05/14 09:59:45;;;;;;;8.53;7.83;;;21.30;86.40;;;;;;4948413;28;20535;-66
2023/05/14 10:02:32;;;;;;;8.23;7.50;;;20.80;88.60;;;;;;4952146;28;20235;-66
2023/05/14 10:05:03;;;;;;;10.40;9.50;;;20.10;89.70;;;;;;4951973;28;20681;-67
2023/05/14 10:07:36;;;;;;;9.20;8.45;;;20.10;90.30;;;;;;4950585;28;20275;-66
2023/05/14 10:10:06;;;;;;;9.10;8.30;;;19.80;91.40;;;;;;4954354;28;20346;-67
2023/05/14 10:12:38;;;;;;;8.30;7.60;;;19.50;92.20;;;;;;4953395;28;20234;-67
2023/05/14 10:15:11;;;;;;;8.80;8.00;;;19.40;92.70;;;;;;4952428;28;20244;-67
2023/05/14 10:17:43;;;;;;;9.23;8.52;;;19.30;92.60;;;;;;4957996;28;20191;-67
2023/05/14 10:20:11;;;;;;;8.45;7.65;;;19.10;92.80;;;;;;4954459;28;20251;-67
2023/05/14 10:22:37;;;;;;;8.20;7.40;;;18.90;93.00;;;;;;4956303;28;20223;-67
2023/05/14 10:25:03;;;;;;;7.33;6.63;;;19.00;93.60;;;;;;4955848;28;20235;-67
2023/05/14 10:27:30;;;;;;;7.10;6.50;;;19.10;93.30;;;;;;4955435;28;20914;-66
2023/05/14 10:29:56;;;;;;;7.72;7.03;;;19.10;93.00;;;;;;4951442;28;20196;-66
2023/05/14 10:32:23;;;;;;;8.70;7.37;;;19.10;92.70;;;;;;4963629;28;20353;-67
2023/05/14 10:34:50;;;;;;;7.80;7.20;;;19.20;93.30;;;;;;4958366;28;20595;-66
2023/05/14 10:37:19;;;;;;;7.18;6.57;;;19.30;92.50;;;;;;4959072;28;20665;-67
2023/05/14 10:39:46;;;;;;;8.05;7.22;;;19.30;92.70;;;;;;4959486;28;20189;-66
2023/05/14 10:42:39;;;;;;;7.13;6.50;;;19.60;92.60;;;;;;4956511;28;20180;-67
2023/05/14 10:45:07;;;;;;;7.65;6.95;;;19.70;92.10;;;;;;4950238;28;20201;-67
2023/05/14 10:47:40;;;;;;;7.50;6.90;;;20.30;91.80;;;;;;4960344;28;20646;-67
2023/05/14 10:50:09;;;;;;;8.13;7.40;;;19.90;91.60;;;;;;4957173;28;20286;-67
2023/05/14 10:52:35;;;;;;;7.57;6.97;;;19.90;92.20;;;;;;4939402;28;20283;-67
2023/05/14 10:55:11;;;;;;;7.63;6.93;;;20.50;91.70;;;;;;4954188;28;20181;-67
2023/05/14 10:57:38;;;;;;;7.50;6.82;;;20.20;91.20;;;;;;4957047;28;20211;-66
2023/05/14 11:00:09;;;;;;;7.40;6.90;;;20.60;91.30;;;;;;4956719;28;20195;-67
2023/05/14 11:02:39;;;;;;;7.70;7.00;;;21.30;90.40;;;;;;4958373;28;20570;-67
2023/05/14 11:05:12;;;;;;;8.10;7.30;;;21.40;90.00;;;;;;4954545;28;20215;-67
2023/05/14 11:07:43;;;;;;;8.23;7.53;;;21.40;89.60;;;;;;4949686;28;20213;-67
2023/05/14 11:10:16;;;;;;;8.18;7.38;;;21.40;90.00;;;;;;4961949;28;20192;-67
2023/05/14 11:12:44;;;;;;;7.07;6.47;;;21.00;90.10;;;;;;4963258;28;20263;-67
2023/05/14 11:15:13;;;;;;;6.60;6.03;;;20.90;90.00;;;;;;4960261;28;20188;-66
2023/05/14 11:17:41;;;;;;;8.55;7.07;;;20.30;91.00;;;;;;4963350;28;20219;-67
2023/05/14 11:20:08;;;;;;;8.13;7.43;;;19.80;91.60;;;;;;4961250;28;20271;-66
2023/05/14 11:22:35;;;;;;;8.10;7.40;;;20.10;92.30;;;;;;4955814;28;20192;-66
2023/05/14 11:25:01;;;;;;;7.50;6.90;;;19.70;92.90;;;;;;4959311;28;20197;-66
2023/05/14 11:27:27;;;;;;;7.67;6.97;;;19.40;93.20;;;;;;4941660;28;20290;-66
2023/05/14 11:29:54;;;;;;;9.10;8.00;;;19.40;93.80;;;;;;4960115;28;20455;-66
2023/05/14 11:32:20;;;;;;;9.20;8.30;;;19.30;93.80;;;;;;4957886;28;20804;-66
2023/05/14 11:34:46;;;;;;;8.63;7.73;;;19.20;94.20;;;;;;4958028;28;20187;-67
2023/05/14 11:37:13;;;;;;;8.03;7.33;;;19.40;93.90;;;;;;4953727;28;20539;-67
2023/05/14 11:39:46;;;;;;;7.45;6.80;;;20.10;92.70;;;;;;4958084;28;20662;-67
2023/05/14 11:42:13;;;;;;;7.07;6.47;;;21.60;91.10;;;;;;4960715;28;20188;-66
2023/05/14 11:44:39;;;;;;;7.23;6.73;;;22.40;88.00;;;;;;4960424;28;20468;-66
2023/05/14 11:47:06;;;;;;;7.60;7.00;;;22.80;86.90;;;;;;4955331;28;20484;-67
2023/05/14 11:49:34;;;;;;;8.17;7.57;;;23.80;83.10;;;;;;4957931;28;20868;-67
2023/05/14 11:52:04;;;;;;;8.27;7.57;;;24.20;81.20;;;;;;4958830;28;20827;-67
2023/05/14 11:54:32;;;;;;;8.03;7.20;;;23.30;82.70;;;;;;4956690;28;20480;-66
2023/05/14 11:56:59;;;;;;;7.20;6.60;;;23.00;83.90;;;;;;4959783;28;20491;-67
2023/05/14 11:59:30;;;;;;;6.47;5.93;;;22.30;85.90;;;;;;4954265;28;21178;-66
2023/05/14 12:01:56;;;;;;;7.30;6.65;;;21.90;86.00;;;;;;4957427;28;21028;-66
2023/05/14 12:04:21;;;;;;;6.33;5.83;;;21.10;88.90;;;;;;4963801;28;20206;-66
2023/05/14 12:06:51;;;;;;;7.23;6.63;;;21.00;88.80;;;;;;4960186;28;20216;-66
2023/05/14 12:09:21;;;;;;;7.30;6.63;;;20.90;90.40;;;;;;4957094;28;20184;-67
2023/05/14 12:11:49;;;;;;;7.05;6.55;;;21.00;90.80;;;;;;4959557;28;20205;-66
2023/05/14 12:14:22;;;;;;;6.57;5.97;;;20.90;91.20;;;;;;4955249;28;20185;-66
2023/05/14 12:16:49;;;;;;;6.35;5.78;;;20.90;90.30;;;;;;4959501;28;20188;-67
2023/05/14 12:19:16;;;;;;;6.80;6.20;;;20.80;90.00;;;;;;4962579;28;20185;-67
2023/05/14 12:21:44;;;;;;;6.22;5.63;;;20.70;90.40;;;;;;4958795;28;20216;-67
2023/05/14 12:24:18;;;;;;;8.15;6.60;;;20.90;90.50;;;;;;4957909;28;20614;-67
2023/05/14 12:26:45;;;;;;;6.63;6.07;;;21.00;90.60;;;;;;4965476;28;20223;-68
2023/05/14 12:29:13;;;;;;;6.15;5.50;;;21.20;90.70;;;;;;4960338;28;20184;-67
2023/05/14 12:31:46;;;;;;;6.35;5.85;;;21.10;90.50;;;;;;4955001;28;20215;-67
2023/05/14 12:34:12;;;;;;;6.13;5.53;;;21.30;90.20;;;;;;4958467;28;20515;-68
2023/05/14 12:36:37;;;;;;;6.57;6.07;;;20.60;88.90;;;;;;4946592;28;20276;-68
2023/05/14 12:39:04;;;;;;;6.23;5.77;;;20.50;90.20;;;;;;4958427;28;20280;-65